Ocean City (26N)
Ocean City, NJ
Field Elevation: 8
Lat: 39°15.81N  Long: 74°36.45W
CTAF/Unicom Freq: 122.7000
   
     For Weather-by-Phone, call (609) 398-0705
Weather Advisories
2019-07-18   15:24 Z
Altimeter 29.90" Hg
Wind 190° @ 11 KT
Gusts 17 KT
Visibility 7 SM
Ceiling FEW190
Temperature 27° C (81° F)
Dewpoint 25° C (77° F)
Relative Humidity 91%
Density Altitude 1,400 feet
Condensation Altitude --
Heat Index: 31° C (88° F)
Wind and Runways
Indicated Runway = 24
Headwind = 7 kt
Crosswind = 8 kt
History
 
 
 
More Info
All DigiWx sites map
Weather Radar
NOAA Forecast
 
Airport IQ 5010
(HMIEM) Shock Trauma Ctr
(PN44) Upper Gwynedd Heliport
 
about DigiWx
 
FAA Disclaimer: The data displayed is for advisory purposes only and is not to be used for flight planning or operations. For official data, please call (609) 398-0705 to hear the current automated AWOS voice message.
  METAR 26N 181524Z AUTO 19011G17KT VIS 7 SM FEW190 27/25 A2990